地図

経路データ

SID SEASON NUMBER BASIN SUBBASIN NAME ISO_TIME NATURE LAT LON WMO_WIND WMO_PRES WMO_AGENCY TRACK_TYPE DIST2LAND LANDFALL IFLAG USA_AGENCY USA_ATCF_ID USA_LAT USA_LON USA_RECORD USA_STATUS USA_WIND USA_PRES USA_SSHS USA_R34_NE USA_R34_SE USA_R34_SW USA_R34_NW USA_R50_NE USA_R50_SE USA_R50_SW USA_R50_NW USA_R64_NE USA_R64_SE USA_R64_SW USA_R64_NW USA_POCI USA_ROCI USA_RMW USA_EYE TOKYO_LAT TOKYO_LON TOKYO_GRADE TOKYO_WIND TOKYO_PRES TOKYO_R50_DIR TOKYO_R50_LONG TOKYO_R50_SHORT TOKYO_R30_DIR TOKYO_R30_LONG TOKYO_R30_SHORT TOKYO_LAND CMA_LAT CMA_LON CMA_CAT CMA_WIND CMA_PRES HKO_LAT HKO_LON HKO_CAT HKO_WIND HKO_PRES NEWDELHI_LAT NEWDELHI_LON NEWDELHI_GRADE NEWDELHI_WIND NEWDELHI_PRES NEWDELHI_CI NEWDELHI_DP NEWDELHI_POCI REUNION_LAT REUNION_LON REUNION_TYPE REUNION_WIND REUNION_PRES REUNION_TNUM REUNION_CI REUNION_RMW REUNION_R34_NE REUNION_R34_SE REUNION_R34_SW REUNION_R34_NW REUNION_R50_NE REUNION_R50_SE REUNION_R50_SW REUNION_R50_NW REUNION_R64_NE REUNION_R64_SE REUNION_R64_SW REUNION_R64_NW BOM_LAT BOM_LON BOM_TYPE BOM_WIND BOM_PRES BOM_TNUM BOM_CI BOM_RMW BOM_R34_NE BOM_R34_SE BOM_R34_SW BOM_R34_NW BOM_R50_NE BOM_R50_SE BOM_R50_SW BOM_R50_NW BOM_R64_NE BOM_R64_SE BOM_R64_SW BOM_R64_NW BOM_ROCI BOM_POCI BOM_EYE BOM_POS_METHOD BOM_PRES_METHOD NADI_LAT NADI_LON NADI_CAT NADI_WIND NADI_PRES WELLINGTON_LAT WELLINGTON_LON WELLINGTON_WIND WELLINGTON_PRES DS824_LAT DS824_LON DS824_STAGE DS824_WIND DS824_PRES TD9636_LAT TD9636_LON TD9636_STAGE TD9636_WIND TD9636_PRES TD9635_LAT TD9635_LON TD9635_WIND TD9635_PRES TD9635_ROCI NEUMANN_LAT NEUMANN_LON NEUMANN_CLASS NEUMANN_WIND NEUMANN_PRES MLC_LAT MLC_LON MLC_CLASS MLC_WIND MLC_PRES USA_GUST BOM_GUST BOM_GUST_PER REUNION_GUST REUNION_GUST_PER USA_SEAHGT USA_SEARAD_NE USA_SEARAD_SE USA_SEARAD_SW USA_SEARAD_NW STORM_SPEED STORM_DIR
1922266N15130 1922 54 WP MM NOT_NAMED 1922-09-22 22:00:00 NR 15.4000 130.300 main 630 582 __________O___ -1 15.4000 130.300 2 11 244
1922266N15130 1922 54 WP MM NOT_NAMED 1922-09-23 00:00:00 NR 15.2340 129.945 main 582 525 __________P___ -1 15.2340 129.945 2 11 244
1922266N15130 1922 54 WP MM NOT_NAMED 1922-09-23 03:00:00 NR 14.9904 129.422 main 525 469 __________P___ -1 14.9904 129.422 2 11 245
1922266N15130 1922 54 WP MM NOT_NAMED 1922-09-23 06:00:00 NR 14.7623 128.919 main 469 413 __________P___ -1 14.7623 128.919 2 10 245
1922266N15130 1922 54 WP MM NOT_NAMED 1922-09-23 09:00:00 NR 14.5599 128.448 main 413 397 __________P___ -1 14.5599 128.448 2 10 246
1922266N15130 1922 54 WP MM NOT_NAMED 1922-09-23 10:00:00 NR 14.5000 128.300 main 397 365 __________O___ -1 14.5000 128.300 2 9 248
1922266N15130 1922 54 WP MM NOT_NAMED 1922-09-23 12:00:00 NR 14.3922 128.017 main 365 319 __________P___ -1 14.3922 128.017 2 9 250
1922266N15130 1922 54 WP MM NOT_NAMED 1922-09-23 15:00:00 NR 14.2500 127.594 main 319 272 __________P___ -1 14.2500 127.594 2 9 252
1922266N15130 1922 54 WP MM NOT_NAMED 1922-09-23 18:00:00 NR 14.1126 127.118 main 272 219 __________P___ -1 14.1126 127.118 2 11 254
1922266N15130 1922 54 WP MM NOT_NAMED 1922-09-23 21:00:00 NR 13.9588 126.531 main 219 196 __________P___ -1 13.9588 126.531 2 12 255
1922266N15130 1922 54 WP MM NOT_NAMED 1922-09-23 22:00:00 NR 13.9000 126.300 main 196 151 __________O___ -1 13.9000 126.300 2 15 255
1922266N15130 1922 54 WP MM NOT_NAMED 1922-09-24 00:00:00 NR 13.7619 125.766 main 151 48 __________P___ -1 13.7619 125.766 2 18 255
1922266N15130 1922 54 WP MM NOT_NAMED 1922-09-24 03:00:00 NR 13.5291 124.845 main 48 0 __________P___ -1 13.5291 124.845 2 20 255
1922266N15130 1922 54 WP MM NOT_NAMED 1922-09-24 06:00:00 NR 13.2712 123.826 main 0 0 __________P___ -1 13.2712 123.826 2 21 255
1922266N15130 1922 54 WP MM NOT_NAMED 1922-09-24 09:00:00 NR 12.9949 122.758 main 24 22 __________P___ -1 12.9949 122.758 2 22 255
1922266N15130 1922 54 WP MM NOT_NAMED 1922-09-24 10:00:00 NR 12.9000 122.400 main 39 15 __________O___ -1 12.9000 122.400 2 23 253
1922266N15130 1922 54 WP MM NOT_NAMED 1922-09-24 12:00:00 NR 12.6704 121.651 main 15 0 __________P___ -1 12.6704 121.651 2 23 252
1922266N15130 1922 54 WP MM NOT_NAMED 1922-09-24 15:00:00 NR 12.3123 120.507 main 54 62 __________P___ -1 12.3123 120.507 2 23 253
1922266N15130 1922 54 WP MM NOT_NAMED 1922-09-24 18:00:00 NR 11.9865 119.417 main 79 74 __________P___ -1 11.9865 119.417 2 21 254
1922266N15130 1922 54 WP MM NOT_NAMED 1922-09-24 21:00:00 NR 11.7494 118.469 main 113 122 __________P___ -1 11.7494 118.469 2 18 256
1922266N15130 1922 54 WP MM NOT_NAMED 1922-09-24 22:00:00 NR 11.7000 118.200 main 142 142 __________O___ -1 11.7000 118.200 2 14 263
1922266N15130 1922 54 WP MM NOT_NAMED 1922-09-25 00:00:00 NR 11.6683 117.773 main 183 193 __________P___ -1 11.6683 117.773 2 11 271
1922266N15130 1922 54 WP MM NOT_NAMED 1922-09-25 03:00:00 NR 11.7232 117.288 main 235 235 __________P___ -1 11.7232 117.288 2 9 283
1922266N15130 1922 54 WP MM NOT_NAMED 1922-09-25 06:00:00 NR 11.8618 116.925 main 283 283 __________P___ -1 11.8618 116.925 2 7 295
1922266N15130 1922 54 WP MM NOT_NAMED 1922-09-25 09:00:00 NR 12.0397 116.608 main 318 321 __________P___ -1 12.0397 116.608 2 7 300
1922266N15130 1922 54 WP MM NOT_NAMED 1922-09-25 10:00:00 NR 12.1000 116.500 main 331 331 __________O___ -1 12.1000 116.500 2 8 290
1922266N15130 1922 54 WP MM NOT_NAMED 1922-09-25 12:00:00 NR 12.1806 116.222 main 366 366 __________P___ -1 12.1806 116.222 2 8 288
1922266N15130 1922 54 WP MM NOT_NAMED 1922-09-25 15:00:00 NR 12.3140 115.812 main 409 409 __________P___ -1 12.3140 115.812 2 8 290
1922266N15130 1922 54 WP MM NOT_NAMED 1922-09-25 18:00:00 NR 12.4653 115.412 main 453 453 __________P___ -1 12.4653 115.412 2 8 293
1922266N15130 1922 54 WP MM NOT_NAMED 1922-09-25 21:00:00 NR 12.6374 115.025 main 488 488 __________P___ -1 12.6374 115.025 2 8 295
1922266N15130 1922 54 WP MM NOT_NAMED 1922-09-25 22:00:00 NR 12.7000 114.900 main 503 503 __________O___ -1 12.7000 114.900 2 8 298
1922266N15130 1922 54 WP MM NOT_NAMED 1922-09-26 00:00:00 NR 12.8275 114.653 main 526 520 __________P___ -1 12.8275 114.653 2 8 300
1922266N15130 1922 54 WP MM NOT_NAMED 1922-09-26 03:00:00 NR 13.0376 114.294 main 520 478 __________P___ -1 13.0376 114.294 2 8 303
1922266N15130 1922 54 WP MM NOT_NAMED 1922-09-26 06:00:00 NR 13.2677 113.948 main 478 449 __________P___ -1 13.2677 113.948 2 8 306
1922266N15130 1922 54 WP MM NOT_NAMED 1922-09-26 09:00:00 NR 13.5145 113.611 main 449 440 __________P___ -1 13.5145 113.611 2 8 307
1922266N15130 1922 54 WP MM NOT_NAMED 1922-09-26 10:00:00 NR 13.6000 113.500 main 440 421 __________O___ -1 13.6000 113.500 2 8 309
1922266N15130 1922 54 WP MM NOT_NAMED 1922-09-26 12:00:00 NR 13.7750 113.280 main 423 398 __________P___ -1 13.7750 113.280 2 8 310
1922266N15130 1922 54 WP MM NOT_NAMED 1922-09-26 15:00:00 NR 14.0458 112.954 main 398 358 __________P___ -1 14.0458 112.954 2 8 311
1922266N15130 1922 54 WP MM NOT_NAMED 1922-09-26 18:00:00 NR 14.3238 112.630 main 358 332 __________P___ -1 14.3238 112.630 2 8 312
1922266N15130 1922 54 WP MM NOT_NAMED 1922-09-26 21:00:00 NR 14.6057 112.308 main 332 325 __________P___ -1 14.6057 112.308 2 8 312
1922266N15130 1922 54 WP MM NOT_NAMED 1922-09-26 22:00:00 NR 14.7000 112.200 main 325 __________O___ -1 14.7000 112.200 2 8 311

デジタル台風データ・検索

IBTrACS Databaseについて

本データベースは、米国NOAAが公開する1842年以降の世界の熱帯低気圧のベストトラックデータアーカイブInternational Best Track Archive for Climate Stewardship (IBTrACS)を、ウェブで閲覧しやすい形式に変換したものです。

最終更新日:2021-10-08